Terminal Aerodrome Forecast
Issued by NWS

Home | Current Version | Previous Version | Graphics & Text | Print | Product List | Glossary On
Versions: 1 2 3 4 5 6 7 8 9 10 11 12 13 14 15 16
000
FTUS43 KGRB 231120
TAFAUW
TAF
KAUW 231120Z 2312/2412 32005KT P6SM SCT070 BKN100
     FM231500 31007KT P6SM SCT040 BKN100
     FM232100 30008KT P6SM SCT035 BKN060
     FM240100 35006KT P6SM SCT060
     FM240500 03004KT P6SM SCT015
     FM240800 03005KT 5SM BR SCT004 OVC015
      TEMPO 2408/2412 2SM BR BKN004=

USA.gov is the U.S. government's official web portal to all federal, state and local government web resources and services.